createdAt,value
2018-12-19T00:00:37.450Z,10.08
2018-12-19T00:03:05.328Z,11.53
2018-12-19T00:05:33.238Z,10.85
2018-12-19T00:08:01.467Z,10.85
2018-12-19T00:10:29.308Z,10.15
2018-12-19T00:12:57.331Z,10.60
2018-12-19T00:15:25.212Z,10.32
2018-12-19T00:17:53.158Z,10.50
2018-12-19T00:20:21.082Z,11.20
2018-12-19T00:22:48.962Z,10.58
2018-12-19T00:25:16.931Z,12.30
2018-12-19T00:27:44.977Z,11.95
2018-12-19T00:30:12.961Z,10.53
2018-12-19T00:32:40.851Z,10.80
2018-12-19T00:35:08.700Z,12.15
2018-12-19T00:37:36.591Z,10.60
2018-12-19T00:40:04.636Z,10.03
2018-12-19T00:42:32.557Z,11.05
2018-12-19T00:45:00.956Z,11.50
2018-12-19T00:47:28.868Z,11.35
2018-12-19T00:49:56.750Z,11.55
2018-12-19T00:52:24.563Z,10.65
2018-12-19T00:54:52.504Z,11.22
2018-12-19T00:57:20.252Z,11.33
2018-12-19T00:59:48.240Z,10.60
2018-12-19T01:02:16.084Z,11.30
2018-12-19T01:04:48.052Z,10.65
2018-12-19T01:07:13.716Z,10.72
2018-12-19T01:09:42.146Z,9.68
2018-12-19T01:12:10.071Z,10.45
2018-12-19T01:14:37.957Z,10.63
2018-12-19T01:17:05.791Z,11.00
2018-12-19T01:19:33.741Z,11.00
2018-12-19T01:22:01.943Z,10.25
2018-12-19T01:24:29.831Z,10.45
2018-12-19T01:26:57.651Z,10.72
2018-12-19T01:29:25.544Z,9.65
2018-12-19T01:31:53.456Z,9.25
2018-12-19T01:34:21.364Z,9.90
2018-12-19T01:36:49.235Z,9.88
2018-12-19T01:39:22.450Z,9.13
2018-12-19T01:41:47.012Z,9.45
2018-12-19T01:44:14.900Z,9.48
2018-12-19T01:46:42.795Z,8.60
2018-12-19T01:49:10.620Z,9.08
2018-12-19T01:51:38.629Z,10.88
2018-12-19T01:54:06.815Z,9.85
2018-12-19T01:56:34.823Z,9.18
2018-12-19T01:59:02.646Z,8.83
2018-12-19T02:01:30.643Z,9.98
2018-12-19T02:03:58.601Z,10.68
2018-12-19T02:06:26.520Z,9.45
2018-12-19T02:08:54.430Z,10.78
2018-12-19T02:11:22.309Z,8.93
2018-12-19T02:13:50.169Z,9.68
2018-12-19T02:16:18.077Z,9.25
2018-12-19T02:18:45.968Z,10.00
2018-12-19T02:21:13.792Z,9.53
2018-12-19T02:23:41.799Z,9.40
2018-12-19T02:26:09.753Z,9.40
2018-12-19T02:28:37.635Z,8.90
2018-12-19T02:31:05.443Z,8.33
2018-12-19T02:33:33.271Z,9.05
2018-12-19T02:36:01.325Z,8.68
2018-12-19T02:38:29.323Z,8.88
2018-12-19T02:40:57.125Z,8.80
2018-12-19T02:43:25.119Z,9.45
2018-12-19T02:45:53.000Z,8.73
2018-12-19T02:48:20.901Z,9.88
2018-12-19T02:50:48.758Z,10.10
2018-12-19T02:53:16.804Z,9.50
2018-12-19T02:55:44.629Z,10.30
2018-12-19T02:58:12.699Z,8.70
2018-12-19T03:00:40.586Z,10.15
2018-12-19T03:03:08.565Z,9.45
2018-12-19T03:05:36.405Z,9.58
2018-12-19T03:08:04.312Z,9.08
2018-12-19T03:10:32.133Z,9.73
2018-12-19T03:12:59.955Z,9.38
2018-12-19T03:15:28.390Z,10.48
2018-12-19T03:17:56.231Z,10.38
2018-12-19T03:20:24.151Z,10.45
2018-12-19T03:22:51.972Z,10.85
2018-12-19T03:25:19.864Z,9.85
2018-12-19T03:27:47.679Z,10.78
2018-12-19T03:30:15.597Z,11.38
2018-12-19T03:32:43.454Z,9.45
2018-12-19T03:35:11.373Z,10.38
2018-12-19T03:37:39.209Z,11.10
2018-12-19T03:40:07.252Z,10.45
2018-12-19T03:42:35.233Z,12.55
2018-12-19T03:45:03.522Z,10.80
2018-12-19T03:47:32.455Z,11.20
2018-12-19T03:50:00.320Z,12.53
2018-12-19T03:52:28.309Z,11.00
2018-12-19T03:54:56.171Z,11.93
2018-12-19T03:57:24.295Z,12.10
2018-12-19T03:59:52.309Z,11.30
2018-12-19T04:02:20.139Z,11.57
2018-12-19T04:04:47.955Z,10.43
2018-12-19T04:07:15.883Z,10.63
2018-12-19T04:09:43.711Z,10.50
2018-12-19T04:12:11.592Z,10.68
2018-12-19T04:14:39.410Z,10.80
2018-12-19T04:17:07.418Z,12.00
2018-12-19T04:19:35.246Z,11.55
2018-12-19T04:22:03.344Z,11.40
2018-12-19T04:24:31.162Z,10.93
2018-12-19T04:26:59.087Z,10.30
2018-12-19T04:29:26.927Z,10.50
2018-12-19T04:31:54.829Z,10.20
2018-12-19T04:34:22.668Z,9.50
2018-12-19T04:36:50.646Z,10.10
2018-12-19T04:39:18.466Z,9.70
2018-12-19T04:41:46.365Z,10.18
2018-12-19T04:44:14.335Z,10.85
2018-12-19T04:46:42.133Z,10.50
2018-12-19T04:49:10.020Z,10.63
2018-12-19T04:51:37.945Z,11.25
2018-12-19T04:54:05.858Z,9.00
2018-12-19T04:56:33.673Z,9.45
2018-12-19T04:59:01.735Z,10.78
2018-12-19T05:01:29.611Z,9.38
2018-12-19T05:03:57.605Z,10.53
2018-12-19T05:06:25.428Z,10.00
2018-12-19T05:08:53.323Z,10.05
2018-12-19T05:11:21.128Z,9.80
2018-12-19T05:13:49.088Z,9.43
2018-12-19T05:16:16.913Z,11.10
2018-12-19T05:18:44.813Z,9.45
2018-12-19T05:21:12.668Z,9.63
2018-12-19T05:23:40.563Z,9.90
2018-12-19T05:26:08.530Z,9.35
2018-12-19T05:28:36.350Z,10.65
2018-12-19T05:31:04.441Z,9.68
2018-12-19T05:33:32.232Z,9.13
2018-12-19T05:36:00.065Z,9.33
2018-12-19T05:38:28.195Z,9.20
2018-12-19T05:40:56.092Z,9.55
2018-12-19T05:43:24.000Z,9.43
2018-12-19T05:45:51.840Z,9.98
2018-12-19T05:48:19.578Z,8.83
2018-12-19T05:50:47.488Z,9.15
2018-12-19T05:53:15.309Z,9.65
2018-12-19T05:55:43.217Z,9.28
2018-12-19T05:58:10.928Z,9.00
2018-12-19T06:00:38.820Z,9.68
2018-12-19T06:03:06.659Z,9.33
2018-12-19T06:05:34.542Z,9.70
2018-12-19T06:08:02.553Z,8.40
2018-12-19T06:10:30.439Z,9.68
2018-12-19T06:12:58.252Z,8.63
2018-12-19T06:15:26.093Z,8.00
2018-12-19T06:17:54.116Z,8.50
2018-12-19T06:20:21.912Z,7.67
2018-12-19T06:22:49.795Z,7.80
2018-12-19T06:25:17.634Z,7.97
2018-12-19T06:27:45.536Z,7.62
2018-12-19T06:30:14.292Z,7.95
2018-12-19T06:32:43.211Z,8.63
2018-12-19T06:35:11.062Z,8.93
2018-12-19T06:37:38.862Z,7.20
2018-12-19T06:40:07.451Z,8.23
2018-12-19T06:42:35.680Z,7.58
2018-12-19T06:45:04.967Z,9.00
2018-12-19T06:47:33.488Z,8.60
2018-12-19T06:50:01.439Z,8.88
2018-12-19T06:52:30.120Z,9.58
2018-12-19T06:54:57.915Z,8.43
2018-12-19T06:57:25.820Z,9.93
2018-12-19T06:59:53.632Z,9.73
2018-12-19T07:02:21.579Z,9.78
2018-12-19T07:04:49.534Z,10.50
2018-12-19T07:07:17.349Z,10.15
2018-12-19T07:09:45.240Z,10.53
2018-12-19T07:12:13.190Z,10.32
2018-12-19T07:14:41.257Z,8.90
2018-12-19T07:17:09.083Z,8.80
2018-12-19T07:19:36.896Z,9.20
2018-12-19T07:22:04.798Z,9.53
2018-12-19T07:24:32.693Z,10.40
2018-12-19T07:27:01.103Z,9.63
2018-12-19T07:29:28.991Z,10.70
2018-12-19T07:31:56.818Z,8.78
2018-12-19T07:34:24.731Z,10.35
2018-12-19T07:36:52.478Z,9.90
2018-12-19T07:39:20.512Z,9.88
2018-12-19T07:41:48.347Z,10.43
2018-12-19T07:44:16.328Z,9.38
2018-12-19T07:46:52.136Z,9.93
2018-12-19T07:51:57.371Z,10.95
2018-12-19T07:54:25.288Z,10.95
2018-12-19T07:56:53.138Z,11.55
2018-12-19T07:59:20.956Z,11.45
2018-12-19T08:01:48.883Z,11.97
2018-12-19T08:04:17.148Z,12.15
2018-12-19T08:06:45.155Z,11.83
2018-12-19T08:09:12.992Z,11.95
2018-12-19T08:11:40.997Z,11.93
2018-12-19T08:14:08.829Z,13.03
2018-12-19T08:16:36.881Z,12.20
2018-12-19T08:19:04.724Z,10.45
2018-12-19T08:21:32.620Z,10.80
2018-12-19T08:24:00.372Z,11.78
2018-12-19T08:26:28.279Z,12.40
2018-12-19T08:28:56.250Z,12.28
2018-12-19T08:31:24.776Z,11.33
2018-12-19T08:33:52.739Z,13.20
2018-12-19T08:36:20.653Z,14.00
2018-12-19T08:38:48.587Z,13.58
2018-12-19T08:41:16.439Z,14.53
2018-12-19T08:43:44.364Z,14.30
2018-12-19T08:46:14.713Z,12.93
2018-12-19T08:48:42.167Z,14.25
2018-12-19T08:51:10.043Z,13.90
2018-12-19T08:53:38.061Z,13.90
2018-12-19T08:56:06.136Z,13.25
2018-12-19T08:58:34.043Z,14.23
2018-12-19T09:01:02.161Z,14.35
2018-12-19T09:03:30.172Z,14.98
2018-12-19T09:05:58.013Z,14.35
2018-12-19T09:08:25.931Z,13.90
2018-12-19T09:10:53.840Z,13.80
2018-12-19T09:13:21.872Z,15.32
2018-12-19T09:15:49.787Z,15.25
2018-12-19T09:18:19.056Z,16.45
2018-12-19T09:20:47.155Z,13.98
2018-12-19T09:23:15.568Z,13.30
2018-12-19T09:25:43.546Z,13.83
2018-12-19T09:28:11.511Z,13.98
2018-12-19T09:30:39.364Z,13.90
2018-12-19T09:33:07.232Z,14.73
2018-12-19T09:35:35.173Z,13.85
2018-12-19T09:38:02.991Z,16.07
2018-12-19T09:40:30.883Z,16.12
2018-12-19T09:42:58.899Z,15.98
2018-12-19T09:45:26.894Z,16.75
2018-12-19T09:47:54.756Z,16.42
2018-12-19T09:50:22.804Z,16.45
2018-12-19T09:52:50.693Z,16.50
2018-12-19T09:55:18.596Z,16.93
2018-12-19T09:57:46.470Z,18.42
2018-12-19T10:00:20.151Z,16.37
2018-12-19T10:02:49.604Z,16.42
2018-12-19T10:05:17.531Z,16.27
2018-12-19T10:07:45.389Z,16.00
2018-12-19T10:10:13.292Z,16.20
2018-12-19T10:12:41.095Z,15.60
2018-12-19T10:15:09.123Z,17.02
2018-12-19T10:17:40.872Z,17.35
2018-12-19T10:20:07.075Z,17.55
2018-12-19T10:22:35.011Z,17.40
2018-12-19T10:25:08.892Z,14.25
2018-12-19T10:27:38.351Z,15.28
2018-12-19T10:30:08.770Z,15.53
2018-12-19T10:32:38.249Z,15.68
2018-12-19T10:35:09.341Z,14.65
2018-12-19T10:37:37.269Z,13.13
2018-12-19T10:40:08.537Z,13.08
2018-12-19T10:42:36.685Z,15.10
2018-12-19T10:45:07.070Z,13.83
2018-12-19T10:47:35.087Z,15.68
2018-12-19T10:50:03.518Z,15.32
2018-12-19T10:52:32.860Z,13.60
2018-12-19T10:55:00.737Z,15.32
2018-12-19T10:57:28.673Z,16.12
2018-12-19T10:59:56.653Z,15.85
2018-12-19T11:02:24.546Z,17.40
2018-12-19T11:04:52.389Z,16.20
2018-12-19T11:07:20.313Z,16.95
2018-12-19T11:09:48.246Z,15.55
2018-12-19T11:12:16.182Z,16.52
2018-12-19T11:14:44.154Z,18.55
2018-12-19T11:17:12.184Z,17.17
2018-12-19T11:19:40.024Z,16.70
2018-12-19T11:22:10.164Z,16.85
2018-12-19T11:24:38.502Z,18.23
2018-12-19T11:27:06.348Z,16.00
2018-12-19T11:29:34.312Z,18.07
2018-12-19T11:32:02.287Z,16.67
2018-12-19T11:34:30.262Z,16.77
2018-12-19T11:36:58.248Z,17.50
2018-12-19T11:39:26.156Z,17.10
2018-12-19T11:41:54.148Z,18.17
2018-12-19T11:44:22.120Z,17.90
2018-12-19T11:46:49.971Z,17.77
2018-12-19T11:49:18.025Z,19.15
2018-12-19T11:51:45.883Z,18.50
2018-12-19T11:54:13.808Z,18.48
2018-12-19T11:56:42.880Z,19.50
2018-12-19T11:59:10.794Z,18.40
2018-12-19T12:01:41.484Z,18.48
2018-12-19T12:04:17.212Z,19.27
2018-12-19T12:06:47.534Z,19.25
2018-12-19T12:09:20.331Z,20.00
2018-12-19T12:11:53.784Z,19.87
2018-12-19T12:14:23.389Z,18.75
2018-12-19T12:16:53.641Z,19.12
2018-12-19T12:19:22.820Z,19.12
2018-12-19T12:21:54.648Z,20.00
2018-12-19T12:24:24.232Z,19.52
2018-12-19T12:26:52.863Z,20.35
2018-12-19T12:29:21.840Z,18.55
2018-12-19T12:31:50.368Z,19.30
2018-12-19T12:34:21.891Z,20.85
2018-12-19T12:36:51.468Z,19.10
2018-12-19T12:39:20.697Z,19.00
2018-12-19T12:41:52.354Z,19.40
2018-12-19T12:44:20.287Z,21.62
2018-12-19T12:46:51.055Z,19.32
2018-12-19T12:49:19.664Z,18.87
2018-12-19T12:51:49.306Z,18.32
2018-12-19T12:54:21.052Z,17.48
2018-12-19T12:56:50.729Z,19.95
2018-12-19T12:59:18.650Z,18.32
2018-12-19T13:01:49.162Z,17.30
2018-12-19T13:04:20.133Z,19.35
2018-12-19T13:06:48.831Z,17.80
2018-12-19T13:09:21.095Z,19.40
2018-12-19T13:11:49.736Z,18.57
2018-12-19T13:14:19.821Z,19.82
2018-12-19T13:16:47.714Z,20.12
2018-12-19T13:19:15.673Z,19.32
2018-12-19T13:21:45.283Z,20.35
2018-12-19T13:24:13.505Z,20.08
2018-12-19T13:26:41.817Z,18.67
2018-12-19T13:29:11.879Z,20.50
2018-12-19T13:31:41.115Z,20.00
2018-12-19T13:34:09.793Z,18.77
2018-12-19T13:36:40.190Z,18.17
2018-12-19T13:39:09.736Z,18.60
2018-12-19T13:41:39.292Z,18.67
2018-12-19T13:44:09.239Z,18.23
2018-12-19T13:46:39.535Z,18.55
2018-12-19T13:49:10.386Z,18.62
2018-12-19T13:51:41.165Z,17.65
2018-12-19T13:54:13.059Z,17.70
2018-12-19T13:56:44.875Z,18.25
2018-12-19T13:59:14.871Z,16.50
2018-12-19T14:01:46.218Z,16.52
2018-12-19T14:04:14.295Z,18.32
2018-12-19T14:06:42.183Z,18.05
2018-12-19T14:09:10.155Z,19.12
2018-12-19T14:11:37.980Z,17.25
2018-12-19T14:14:05.956Z,17.73
2018-12-19T14:16:33.816Z,17.73
2018-12-19T14:19:02.024Z,18.65
2018-12-19T14:21:29.941Z,18.32
2018-12-19T14:23:57.819Z,18.02
2018-12-19T14:26:25.775Z,19.27
2018-12-19T14:28:53.728Z,19.95
2018-12-19T14:31:22.195Z,20.60
2018-12-19T14:33:50.086Z,19.42
2018-12-19T14:36:18.026Z,20.45
2018-12-19T14:38:45.960Z,18.32
2018-12-19T14:41:14.012Z,18.10
2018-12-19T14:43:42.039Z,17.73
2018-12-19T14:46:10.116Z,19.35
2018-12-19T14:48:38.067Z,19.92
2018-12-19T14:51:06.128Z,21.23
2018-12-19T14:53:34.082Z,21.10
2018-12-19T14:56:02.048Z,19.67
2018-12-19T14:58:30.130Z,19.07
2018-12-19T15:00:58.119Z,19.27
2018-12-19T15:03:26.038Z,17.95
2018-12-19T15:05:53.926Z,17.12
2018-12-19T15:08:21.990Z,17.15
2018-12-19T15:10:49.886Z,18.85
2018-12-19T15:13:18.016Z,18.07
2018-12-19T15:15:50.471Z,17.77
2018-12-19T15:18:20.063Z,17.70
2018-12-19T15:20:47.965Z,19.62
2018-12-19T15:23:15.990Z,17.48
2018-12-19T15:25:43.962Z,18.20
2018-12-19T15:28:11.989Z,18.98
2018-12-19T15:30:40.332Z,17.60
2018-12-19T15:33:08.426Z,17.65
2018-12-19T15:35:36.309Z,17.00
2018-12-19T15:38:04.307Z,15.43
2018-12-19T15:40:32.187Z,17.75
2018-12-19T15:43:00.172Z,17.25
2018-12-19T15:45:28.510Z,18.92
2018-12-19T15:47:56.429Z,19.17
2018-12-19T15:50:24.395Z,18.92
2018-12-19T15:52:52.323Z,22.07
2018-12-19T15:55:20.371Z,22.02
2018-12-19T15:57:48.393Z,19.52
2018-12-19T16:00:16.517Z,20.08
2018-12-19T16:02:44.505Z,21.37
2018-12-19T16:05:12.589Z,21.17
2018-12-19T16:07:40.497Z,19.82
2018-12-19T16:10:08.736Z,23.32
2018-12-19T16:12:39.353Z,21.90
2018-12-19T16:15:06.834Z,31.75
2018-12-19T16:17:34.680Z,23.18
2018-12-19T16:20:02.811Z,20.08
2018-12-19T16:22:32.246Z,20.52
2018-12-19T16:25:00.272Z,19.20
2018-12-19T16:27:28.558Z,18.55
2018-12-19T16:29:56.566Z,16.30
2018-12-19T16:32:24.609Z,16.55
2018-12-19T16:34:52.673Z,16.82
2018-12-19T16:37:20.545Z,15.15
2018-12-19T16:39:48.531Z,15.75
2018-12-19T16:42:16.670Z,16.77
2018-12-19T16:44:44.624Z,17.32
2018-12-19T16:47:12.554Z,16.90
2018-12-19T16:49:40.463Z,16.82
2018-12-19T16:52:08.397Z,18.48
2018-12-19T16:54:36.403Z,17.65
2018-12-19T16:57:04.384Z,17.50
2018-12-19T16:59:32.369Z,19.15
2018-12-19T17:02:00.915Z,18.70
2018-12-19T17:04:28.929Z,16.25
2018-12-19T17:06:57.399Z,17.70
2018-12-19T17:09:25.524Z,20.02
2018-12-19T17:11:53.507Z,17.07
2018-12-19T17:14:21.405Z,18.00
2018-12-19T17:16:49.203Z,19.45
2018-12-19T17:19:16.975Z,17.95
2018-12-19T17:21:44.792Z,17.32
2018-12-19T17:24:12.669Z,18.15
2018-12-19T17:26:40.660Z,18.10
2018-12-19T17:29:08.635Z,19.07
2018-12-19T17:31:36.446Z,18.75
2018-12-19T17:34:04.331Z,17.85
2018-12-19T17:36:32.168Z,17.40
2018-12-19T17:38:59.884Z,16.87
2018-12-19T17:41:27.788Z,17.70
2018-12-19T17:43:55.669Z,17.52
2018-12-19T17:46:23.585Z,17.12
2018-12-19T17:48:51.476Z,18.77
2018-12-19T17:51:19.184Z,16.67
2018-12-19T17:53:47.153Z,16.35
2018-12-19T17:56:15.028Z,17.48
2018-12-19T17:58:43.069Z,17.90
2018-12-19T18:01:11.138Z,15.88
2018-12-19T18:03:39.031Z,16.70
2018-12-19T18:06:06.884Z,18.20
2018-12-19T18:08:35.706Z,18.70
2018-12-19T18:11:03.931Z,18.20
2018-12-19T18:13:31.880Z,18.45
2018-12-19T18:15:59.682Z,16.15
2018-12-19T18:18:27.510Z,15.85
2018-12-19T18:20:55.252Z,16.10
2018-12-19T18:23:23.059Z,15.80
2018-12-19T18:25:51.029Z,16.32
2018-12-19T18:28:18.924Z,15.03
2018-12-19T18:30:46.869Z,15.68
2018-12-19T18:33:14.836Z,16.10
2018-12-19T18:35:43.429Z,15.53
2018-12-19T18:38:11.253Z,15.75
2018-12-19T18:40:39.274Z,16.20
2018-12-19T18:43:12.732Z,16.02
2018-12-19T18:45:37.212Z,13.98
2018-12-19T18:48:05.177Z,14.98
2018-12-19T18:50:33.258Z,13.95
2018-12-19T18:53:01.505Z,12.70
2018-12-19T18:55:29.649Z,11.85
2018-12-19T18:57:57.688Z,10.58
2018-12-19T19:00:33.416Z,9.80
2018-12-19T19:03:01.558Z,11.83
2018-12-19T19:05:30.318Z,9.88
2018-12-19T19:07:58.991Z,10.20
2018-12-19T19:10:26.942Z,8.95
2018-12-19T19:12:54.868Z,8.50
2018-12-19T19:15:22.673Z,8.38
2018-12-19T19:17:50.743Z,8.00
2018-12-19T19:20:18.577Z,8.40
2018-12-19T19:22:46.580Z,7.10
2018-12-19T19:25:14.483Z,7.92
2018-12-19T19:27:42.421Z,7.10
2018-12-19T19:30:10.508Z,7.40
2018-12-19T19:32:38.440Z,7.10
2018-12-19T19:35:06.500Z,6.10
2018-12-19T19:37:34.484Z,7.05
2018-12-19T19:40:02.692Z,7.33
2018-12-19T19:42:32.313Z,6.47
2018-12-19T19:45:00.166Z,6.22
2018-12-19T19:47:28.437Z,6.78
2018-12-19T19:49:56.328Z,6.50
2018-12-19T19:52:24.266Z,5.92
2018-12-19T19:54:52.114Z,4.83
2018-12-19T19:57:19.959Z,5.45
2018-12-19T19:59:47.949Z,5.67
2018-12-19T20:02:15.782Z,7.15
2018-12-19T20:04:44.374Z,6.70
2018-12-19T20:07:12.290Z,6.37
2018-12-19T20:09:40.422Z,5.30
2018-12-19T20:12:08.300Z,6.35
2018-12-19T20:14:36.440Z,5.30
2018-12-19T20:17:04.497Z,4.05
2018-12-19T20:19:32.572Z,4.50
2018-12-19T20:22:00.424Z,3.90
2018-12-19T20:24:28.464Z,4.40
2018-12-19T20:26:56.384Z,3.80
2018-12-19T20:29:25.276Z,3.20
2018-12-19T20:31:53.073Z,2.95
2018-12-19T20:34:21.000Z,3.50
2018-12-19T20:36:48.741Z,3.90
2018-12-19T20:39:16.671Z,3.10
2018-12-19T20:41:44.549Z,3.10
2018-12-19T20:44:12.572Z,2.80
2018-12-19T20:46:40.402Z,3.00
2018-12-19T20:49:08.165Z,3.00
2018-12-19T20:51:36.181Z,3.05
2018-12-19T20:54:04.173Z,3.00
2018-12-19T20:56:32.162Z,3.52
2018-12-19T20:59:00.004Z,3.62
2018-12-19T21:01:28.244Z,3.90
2018-12-19T21:03:56.195Z,3.25
2018-12-19T21:06:24.191Z,3.87
2018-12-19T21:08:52.068Z,3.55
2018-12-19T21:11:19.979Z,4.45
2018-12-19T21:13:47.844Z,3.70
2018-12-19T21:16:15.936Z,3.35
2018-12-19T21:18:50.613Z,4.58
2018-12-19T21:21:18.709Z,3.50
2018-12-19T21:23:46.751Z,3.47
2018-12-19T21:26:14.632Z,3.05
2018-12-19T21:28:42.625Z,3.70
2018-12-19T21:31:10.411Z,3.60
2018-12-19T21:33:38.361Z,3.62
2018-12-19T21:36:06.296Z,3.60
2018-12-19T21:38:34.231Z,3.80
2018-12-19T21:41:02.284Z,3.42
2018-12-19T21:43:30.302Z,3.35
2018-12-19T21:45:58.506Z,3.95
2018-12-19T21:48:26.561Z,3.77
2018-12-19T21:50:54.672Z,3.20
2018-12-19T21:53:22.709Z,3.47
2018-12-19T21:55:50.698Z,3.72
2018-12-19T21:58:18.830Z,3.72
2018-12-19T22:00:46.848Z,3.25
2018-12-19T22:03:14.852Z,3.27
2018-12-19T22:05:43.194Z,2.83
2018-12-19T22:08:11.248Z,3.27
2018-12-19T22:10:39.396Z,3.22
2018-12-19T22:13:07.315Z,3.30
2018-12-19T22:15:35.310Z,3.00
2018-12-19T22:18:08.986Z,3.95
2018-12-19T22:20:38.664Z,2.90
2018-12-19T22:23:06.613Z,2.55
2018-12-19T22:25:34.700Z,3.00
2018-12-19T22:28:02.755Z,2.90
2018-12-19T22:30:30.807Z,2.72
2018-12-19T22:32:58.704Z,3.22
2018-12-19T22:35:26.645Z,3.15
2018-12-19T22:37:54.497Z,3.25
2018-12-19T22:40:22.514Z,3.27
2018-12-19T22:42:50.512Z,2.50
2018-12-19T22:45:18.571Z,2.80
2018-12-19T22:47:46.618Z,2.50
2018-12-19T22:50:14.570Z,2.77
2018-12-19T22:52:42.720Z,2.52
2018-12-19T22:55:10.575Z,2.62
2018-12-19T22:57:38.502Z,2.20
2018-12-19T23:00:12.564Z,2.50
2018-12-19T23:02:47.953Z,2.37
2018-12-19T23:05:22.473Z,3.10
2018-12-19T23:07:52.212Z,2.40
2018-12-19T23:10:20.218Z,2.20
2018-12-19T23:12:48.124Z,2.27
2018-12-19T23:15:17.212Z,2.60
2018-12-19T23:17:46.804Z,2.70
2018-12-19T23:20:15.016Z,2.58
2018-12-19T23:22:43.489Z,3.10
2018-12-19T23:25:11.666Z,3.35
2018-12-19T23:27:39.768Z,3.27
2018-12-19T23:30:08.321Z,3.10
2018-12-19T23:32:36.912Z,2.70
2018-12-19T23:35:05.152Z,2.70
2018-12-19T23:37:33.316Z,3.00
2018-12-19T23:40:01.561Z,2.80
2018-12-19T23:42:30.010Z,2.98
2018-12-19T23:44:58.176Z,3.50
2018-12-19T23:47:25.995Z,3.00
2018-12-19T23:49:54.196Z,3.08
2018-12-19T23:52:22.156Z,3.90
2018-12-19T23:54:50.242Z,2.42
2018-12-19T23:57:18.171Z,2.62
2018-12-19T23:59:46.298Z,2.67
